RJFS

Details ICAO RJFS (HSG)
Name SAGA
Region Japan
Timezone Asia/Tokyo (UTC+9.0)
Plans Departing 9
Arriving 7
Stats Elevation 5 ft / 2 m (AMSL)
Location 33.149718° 130.302221°
Runways 1
Magnetic Variation 7.313° W
Sunrise 2017-12-12 22:14:34 UTC / 2017-12-13 07:14:34 Local
Sunset 2017-12-13 08:13:56 UTC / 2017-12-13 17:13:56 Local
Advertisement - Login to hide

Runways

ID Width Length Bearing (true) Bearing (mag) Surface Threshold Offset Overrun Length
11 148 ft / 45 m 6,550 ft / 1,997 m 99.29° 106.60° Asphalt 0 ft / 0 m 200 ft / 61 m
29 148 ft / 45 m 6,550 ft / 1,997 m 279.30° 286.61° Asphalt 0 ft / 0 m 200 ft / 61 m

Approach Navaids

Runway Type Ident Frequency Range Bearing (true) Bearing (mag) Slope Elevation
29 Localiser ISG 110.15 MHz 18 nm / 33 km 279.29° 286.60° - 6 ft / 2 m (AMSL)
29 Glidescope ISG 110.15 MHz 10 nm / 19 km 279.29° 286.60° 3.00° 23 ft / 7 m (AMSL)
29 DME ISG 110.15 MHz 18 nm / 33 km - - - 23 ft / 7 m (AMSL)

Map

Weather


0- 5 10 15 20 25 30 35+ Temperature / ° C

Clouds and Precipitation
Forecast for 2017-12-12 18:00 UTC. Updated an hour ago

Ground ~20,000 ft ~40,000 ft Winds

METAR

RJFS 121600Z 04004KT 9999 BKN045 01/M02 Q1025

TAF

TAF RJFS 121109Z 1212/1318 31005KT 9999 FEW020 SCT030

Frequencies

Tower 118.05 MHz REMOTE
Departure 119.70 MHz FUKUOKA DEP
Warning: Do not use this data for real-world aviation or navigation. No guarantee of current accuracy is given.